createdAt,value
2018-02-21T00:00:31.111Z,75.37
2018-02-21T00:02:59.378Z,65.23
2018-02-21T00:05:27.618Z,61.87
2018-02-21T00:07:55.110Z,69.40
2018-02-21T00:10:23.378Z,67.50
2018-02-21T00:12:50.858Z,67.40
2018-02-21T00:15:19.105Z,58.00
2018-02-21T00:17:46.955Z,66.40
2018-02-21T00:20:14.449Z,71.07
2018-02-21T00:22:42.713Z,56.77
2018-02-21T00:25:10.979Z,61.53
2018-02-21T00:27:38.553Z,55.80
2018-02-21T00:30:06.039Z,64.77
2018-02-21T00:32:33.543Z,61.87
2018-02-21T00:35:01.279Z,58.83
2018-02-21T00:37:28.800Z,60.60
2018-02-21T00:39:57.067Z,62.43
2018-02-21T00:42:24.558Z,67.33
2018-02-21T00:44:52.051Z,59.63
2018-02-21T00:47:19.652Z,64.10
2018-02-21T00:49:47.895Z,64.33
2018-02-21T00:52:15.394Z,61.93
2018-02-21T00:54:43.655Z,64.70
2018-02-21T00:57:11.134Z,65.03
2018-02-21T00:59:39.378Z,58.30
2018-02-21T01:02:06.964Z,66.40
2018-02-21T01:04:35.230Z,63.33
2018-02-21T01:07:03.520Z,62.40
2018-02-21T01:09:31.782Z,70.53
2018-02-21T01:12:00.062Z,67.83
2018-02-21T01:14:28.348Z,78.57
2018-02-21T01:16:56.611Z,76.53
2018-02-21T01:19:24.870Z,72.50
2018-02-21T01:21:52.353Z,86.43
2018-02-21T01:24:20.615Z,85.70
2018-02-21T01:26:48.111Z,101.07
2018-02-21T01:29:15.605Z,76.77
2018-02-21T01:31:43.101Z,83.20
2018-02-21T01:34:11.413Z,80.00
2018-02-21T01:36:38.910Z,74.10
2018-02-21T01:39:06.499Z,71.90
2018-02-21T01:41:34.775Z,81.03
2018-02-21T01:44:03.026Z,69.53
2018-02-21T01:46:31.291Z,72.00
2018-02-21T01:48:58.778Z,91.73
2018-02-21T01:51:26.270Z,76.17
2018-02-21T01:53:53.768Z,83.73
2018-02-21T01:56:21.258Z,94.87
2018-02-21T01:58:49.541Z,82.73
2018-02-21T02:01:17.807Z,80.73
2018-02-21T02:03:45.395Z,83.17
2018-02-21T02:06:12.894Z,80.03
2018-02-21T02:08:40.395Z,87.33
2018-02-21T02:11:08.656Z,84.37
2018-02-21T02:13:36.146Z,76.73
2018-02-21T02:16:03.682Z,80.27
2018-02-21T02:18:31.933Z,76.00
2018-02-21T02:20:59.422Z,79.27
2018-02-21T02:23:27.687Z,83.93
2018-02-21T02:25:55.175Z,71.87
2018-02-21T02:28:22.667Z,72.27
2018-02-21T02:30:50.174Z,78.43
2018-02-21T02:33:18.435Z,86.87
2018-02-21T02:35:45.931Z,73.27
2018-02-21T02:38:25.559Z,73.20
2018-02-21T02:40:53.823Z,76.03
2018-02-21T02:43:22.074Z,85.30
2018-02-21T02:45:49.572Z,81.43
2018-02-21T02:48:18.234Z,88.17
2018-02-21T02:50:46.607Z,104.70
2018-02-21T02:53:14.942Z,97.80
2018-02-21T02:55:42.438Z,93.13
2018-02-21T02:58:10.559Z,97.07
2018-02-21T03:00:38.058Z,102.40
2018-02-21T03:03:05.553Z,86.80
2018-02-21T03:05:33.840Z,88.03
2018-02-21T03:08:02.102Z,94.70
2018-02-21T03:10:30.368Z,90.50
2018-02-21T03:12:57.848Z,87.87
2018-02-21T03:15:26.131Z,91.97
2018-02-21T03:17:54.396Z,77.30
2018-02-21T03:20:22.671Z,81.00
2018-02-21T03:22:50.942Z,84.13
2018-02-21T03:25:19.203Z,81.27
2018-02-21T03:27:48.219Z,86.03
2018-02-21T03:30:16.494Z,89.57
2018-02-21T03:32:44.747Z,94.07
2018-02-21T03:35:12.330Z,93.80
2018-02-21T03:37:40.607Z,101.57
2018-02-21T03:40:08.890Z,88.60
2018-02-21T03:42:36.394Z,98.90
2018-02-21T03:45:03.939Z,95.13
2018-02-21T03:47:31.465Z,102.47
2018-02-21T03:49:59.710Z,89.40
2018-02-21T03:52:27.205Z,94.33
2018-02-21T03:54:55.466Z,93.40
2018-02-21T03:57:23.034Z,92.17
2018-02-21T03:59:51.314Z,116.00
2018-02-21T04:02:19.570Z,87.77
2018-02-21T04:04:47.064Z,90.63
2018-02-21T04:07:14.557Z,89.10
2018-02-21T04:09:42.048Z,81.47
2018-02-21T04:12:09.552Z,96.47
2018-02-21T04:14:37.053Z,98.17
2018-02-21T04:17:04.535Z,98.97
2018-02-21T04:19:32.782Z,94.63
2018-02-21T04:22:00.281Z,98.90
2018-02-21T04:24:28.555Z,109.43
2018-02-21T04:26:56.807Z,103.70
2018-02-21T04:29:24.387Z,101.33
2018-02-21T04:31:52.643Z,93.30
2018-02-21T04:34:20.135Z,104.60
2018-02-21T04:36:47.642Z,93.33
2018-02-21T04:39:15.131Z,98.13
2018-02-21T04:41:42.614Z,118.47
2018-02-21T04:44:10.120Z,107.57
2018-02-21T04:46:37.615Z,111.10
2018-02-21T04:49:05.866Z,103.27
2018-02-21T04:51:33.367Z,92.00
2018-02-21T04:54:00.852Z,87.67
2018-02-21T04:56:44.118Z,90.20
2018-02-21T04:59:14.034Z,82.83
2018-02-21T05:01:41.521Z,97.87
2018-02-21T05:04:09.019Z,81.90
2018-02-21T05:06:36.546Z,87.17
2018-02-21T05:09:04.030Z,72.83
2018-02-21T05:11:31.546Z,89.07
2018-02-21T05:13:59.818Z,84.47
2018-02-21T05:16:28.078Z,85.43
2018-02-21T05:18:55.574Z,78.67
2018-02-21T05:21:23.075Z,77.50
2018-02-21T05:23:50.578Z,81.13
2018-02-21T05:26:18.842Z,74.73
2018-02-21T05:28:47.096Z,81.60
2018-02-21T05:31:14.577Z,81.60
2018-02-21T05:33:42.851Z,77.67
2018-02-21T05:36:10.342Z,81.87
2018-02-21T05:38:37.831Z,81.67
2018-02-21T05:41:05.335Z,89.63
2018-02-21T05:43:33.576Z,76.67
2018-02-21T05:46:01.192Z,85.67
2018-02-21T05:48:28.691Z,88.90
2018-02-21T05:50:56.191Z,92.20
2018-02-21T05:53:24.443Z,90.00
2018-02-21T05:55:51.942Z,96.20
2018-02-21T05:58:19.426Z,90.60
2018-02-21T06:00:46.914Z,85.30
2018-02-21T06:03:14.430Z,93.50
2018-02-21T06:05:41.910Z,96.63
2018-02-21T06:08:09.392Z,85.60
2018-02-21T06:10:38.434Z,90.17
2018-02-21T06:13:05.918Z,82.50
2018-02-21T06:15:33.414Z,92.50
2018-02-21T06:18:01.693Z,85.37
2018-02-21T06:20:30.020Z,90.33
2018-02-21T06:22:57.514Z,86.63
2018-02-21T06:25:25.024Z,79.93
2018-02-21T06:27:52.527Z,86.40
2018-02-21T06:30:20.020Z,83.50
2018-02-21T06:32:48.289Z,84.87
2018-02-21T06:35:16.535Z,84.93
2018-02-21T06:37:44.024Z,79.00
2018-02-21T06:40:12.293Z,73.20
2018-02-21T06:42:39.879Z,92.77
2018-02-21T06:45:07.373Z,85.93
2018-02-21T06:47:34.898Z,81.53
2018-02-21T06:50:02.394Z,86.47
2018-02-21T06:52:29.876Z,88.93
2018-02-21T06:54:57.375Z,79.70
2018-02-21T06:57:24.865Z,79.93
2018-02-21T06:59:52.371Z,77.40
2018-02-21T07:02:32.458Z,76.07
2018-02-21T07:04:59.990Z,89.33
2018-02-21T07:07:28.270Z,85.20
2018-02-21T07:09:56.530Z,92.10
2018-02-21T07:12:24.018Z,71.77
2018-02-21T07:14:51.511Z,82.63
2018-02-21T07:17:19.001Z,76.00
2018-02-21T07:19:47.367Z,79.27
2018-02-21T07:22:14.857Z,75.27
2018-02-21T07:24:43.125Z,82.10
2018-02-21T07:27:12.012Z,77.93
2018-02-21T07:29:40.271Z,79.67
2018-02-21T07:32:07.770Z,80.33
2018-02-21T07:34:35.291Z,75.17
2018-02-21T07:37:02.791Z,72.20
2018-02-21T07:39:30.299Z,72.67
2018-02-21T07:41:57.783Z,73.67
2018-02-21T07:44:25.933Z,68.93
2018-02-21T07:46:53.437Z,67.97
2018-02-21T07:49:20.938Z,71.87
2018-02-21T07:51:48.434Z,69.30
2018-02-21T07:54:16.709Z,60.97
2018-02-21T07:56:45.000Z,62.50
2018-02-21T07:59:13.510Z,65.80
2018-02-21T08:01:41.026Z,63.13
2018-02-21T08:04:09.316Z,67.13
2018-02-21T08:06:37.571Z,67.73
2018-02-21T08:09:05.073Z,54.93
2018-02-21T08:11:32.562Z,61.93
2018-02-21T08:14:00.053Z,65.93
2018-02-21T08:16:28.318Z,64.57
2018-02-21T08:18:57.299Z,60.30
2018-02-21T08:21:24.784Z,57.33
2018-02-21T08:23:53.058Z,51.40
2018-02-21T08:26:20.544Z,62.60
2018-02-21T08:28:48.030Z,54.50
2018-02-21T08:31:15.530Z,50.33
2018-02-21T08:33:43.784Z,62.27
2018-02-21T08:36:11.275Z,60.43
2018-02-21T08:38:39.531Z,64.70
2018-02-21T08:41:08.431Z,68.45
2018-02-21T08:43:35.906Z,58.23
2018-02-21T08:46:04.172Z,57.70
2018-02-21T08:48:32.427Z,54.63
2018-02-21T08:51:00.678Z,54.67
2018-02-21T08:53:28.193Z,53.80
2018-02-21T08:55:56.452Z,50.00
2018-02-21T08:58:23.941Z,50.60
2018-02-21T09:00:51.446Z,47.47
2018-02-21T09:03:18.923Z,53.33
2018-02-21T09:05:46.415Z,50.93
2018-02-21T09:08:13.910Z,54.90
2018-02-21T09:10:41.389Z,57.07
2018-02-21T09:13:08.862Z,56.97
2018-02-21T09:15:37.122Z,53.53
2018-02-21T09:18:04.606Z,52.80
2018-02-21T09:20:32.849Z,56.37
2018-02-21T09:23:00.447Z,53.50
2018-02-21T09:25:28.690Z,51.10
2018-02-21T09:27:56.176Z,53.23
2018-02-21T09:30:24.428Z,52.00
2018-02-21T09:32:52.251Z,48.97
2018-02-21T09:35:19.780Z,52.70
2018-02-21T09:37:49.019Z,55.77
2018-02-21T09:40:16.504Z,46.77
2018-02-21T09:42:43.996Z,48.17
2018-02-21T09:45:12.273Z,46.70
2018-02-21T09:47:40.563Z,57.37
2018-02-21T09:50:08.117Z,48.97
2018-02-21T09:52:36.389Z,46.17
2018-02-21T09:55:04.633Z,50.63
2018-02-21T09:57:32.113Z,71.77
2018-02-21T10:00:00.371Z,51.87
2018-02-21T10:02:27.855Z,48.70
2018-02-21T10:04:56.114Z,49.50
2018-02-21T10:07:23.679Z,46.90
2018-02-21T10:09:51.161Z,50.63
2018-02-21T10:12:18.663Z,47.50
2018-02-21T10:14:46.150Z,42.90
2018-02-21T10:17:13.626Z,45.93
2018-02-21T10:19:41.898Z,40.53
2018-02-21T10:22:10.153Z,42.87
2018-02-21T10:24:37.647Z,45.07
2018-02-21T10:27:05.134Z,42.33
2018-02-21T10:29:32.625Z,42.37
2018-02-21T10:32:00.111Z,218.83
2018-02-21T10:34:28.359Z,47.40
2018-02-21T10:36:55.849Z,39.37
2018-02-21T10:39:24.089Z,37.93
2018-02-21T10:41:51.677Z,37.97
2018-02-21T10:44:19.952Z,43.37
2018-02-21T10:46:48.230Z,38.83
2018-02-21T10:49:16.486Z,37.77
2018-02-21T10:51:44.067Z,36.42
2018-02-21T10:54:12.377Z,41.70
2018-02-21T10:56:39.871Z,37.30
2018-02-21T10:59:07.379Z,35.80
2018-02-21T11:01:34.925Z,36.70
2018-02-21T11:04:03.171Z,38.20
2018-02-21T11:06:30.686Z,36.13
2018-02-21T11:08:58.218Z,30.37
2018-02-21T11:11:26.591Z,33.90
2018-02-21T11:13:54.859Z,53.30
2018-02-21T11:16:22.434Z,33.80
2018-02-21T11:18:50.683Z,38.83
2018-02-21T11:21:18.175Z,34.60
2018-02-21T11:23:46.446Z,35.67
2018-02-21T11:26:14.694Z,31.10
2018-02-21T11:28:42.188Z,33.37
2018-02-21T11:31:10.450Z,33.10
2018-02-21T11:33:38.700Z,37.13
2018-02-21T11:36:06.289Z,74.57
2018-02-21T11:38:33.779Z,39.00
2018-02-21T11:41:01.302Z,37.20
2018-02-21T11:43:29.581Z,35.40
2018-02-21T11:45:57.872Z,34.57
2018-02-21T11:48:26.144Z,32.90
2018-02-21T11:50:54.423Z,33.70
2018-02-21T11:53:22.671Z,33.67
2018-02-21T11:55:50.151Z,35.00
2018-02-21T11:58:18.418Z,37.07
2018-02-21T12:00:45.894Z,33.90
2018-02-21T12:03:13.443Z,35.60
2018-02-21T12:05:41.714Z,36.00
2018-02-21T12:08:09.282Z,33.50
2018-02-21T12:10:37.589Z,33.50
2018-02-21T12:13:05.086Z,36.90
2018-02-21T12:15:32.679Z,34.87
2018-02-21T12:18:00.939Z,33.17
2018-02-21T12:20:28.430Z,36.20
2018-02-21T12:22:55.916Z,34.17
2018-02-21T12:25:23.398Z,34.43
2018-02-21T12:27:50.903Z,33.47
2018-02-21T12:30:18.420Z,35.07
2018-02-21T12:32:55.824Z,35.80
2018-02-21T12:35:23.314Z,33.23
2018-02-21T12:37:50.871Z,33.33
2018-02-21T12:40:24.219Z,33.27
2018-02-21T12:42:52.277Z,34.60
2018-02-21T12:45:19.771Z,33.60
2018-02-21T12:47:48.059Z,34.70
2018-02-21T12:50:16.323Z,33.67
2018-02-21T12:52:43.819Z,37.33
2018-02-21T12:55:11.314Z,32.37
2018-02-21T12:57:38.803Z,30.97
2018-02-21T13:00:07.077Z,29.00
2018-02-21T13:02:35.343Z,30.70
2018-02-21T13:05:03.593Z,29.27
2018-02-21T13:07:31.090Z,32.20
2018-02-21T13:09:59.380Z,31.73
2018-02-21T13:12:27.627Z,30.53
2018-02-21T13:14:55.127Z,31.90
2018-02-21T13:17:22.644Z,32.27
2018-02-21T13:19:50.123Z,32.20
2018-02-21T13:22:17.636Z,31.37
2018-02-21T13:24:45.140Z,30.23
2018-02-21T13:27:13.395Z,30.20
2018-02-21T13:29:40.868Z,33.37
2018-02-21T13:32:08.378Z,34.13
2018-02-21T13:34:35.865Z,29.90
2018-02-21T13:37:03.551Z,30.90
2018-02-21T13:39:30.973Z,32.30
2018-02-21T13:41:58.460Z,29.47
2018-02-21T13:44:26.707Z,30.83
2018-02-21T13:46:54.201Z,35.10
2018-02-21T13:49:22.458Z,34.50
2018-02-21T13:51:49.943Z,28.47
2018-02-21T13:54:18.321Z,29.70
2018-02-21T13:56:46.571Z,29.37
2018-02-21T13:59:14.161Z,33.60
2018-02-21T14:01:42.423Z,30.73
2018-02-21T14:04:10.678Z,30.07
2018-02-21T14:06:38.270Z,32.80
2018-02-21T14:09:06.531Z,34.20
2018-02-21T14:11:34.011Z,29.93
2018-02-21T14:14:01.562Z,32.33
2018-02-21T14:16:29.823Z,34.10
2018-02-21T14:18:58.806Z,29.70
2018-02-21T14:21:26.390Z,32.73
2018-02-21T14:23:54.648Z,30.33
2018-02-21T14:26:22.132Z,32.87
2018-02-21T14:28:50.381Z,33.87
2018-02-21T14:31:17.966Z,34.43
2018-02-21T14:33:46.210Z,33.60
2018-02-21T14:36:13.692Z,32.33
2018-02-21T14:38:41.962Z,32.07
2018-02-21T14:41:09.452Z,35.40
2018-02-21T14:43:36.994Z,32.20
2018-02-21T14:46:05.269Z,32.13
2018-02-21T14:48:33.548Z,31.30
2018-02-21T14:51:01.791Z,29.70
2018-02-21T14:53:29.391Z,31.03
2018-02-21T14:55:56.885Z,31.60
2018-02-21T14:58:24.399Z,31.87
2018-02-21T15:00:52.664Z,29.53
2018-02-21T15:03:21.671Z,36.47
2018-02-21T15:05:49.943Z,33.93
2018-02-21T15:08:18.207Z,31.20
2018-02-21T15:10:45.691Z,32.73
2018-02-21T15:13:13.938Z,34.43
2018-02-21T15:15:42.190Z,36.10
2018-02-21T15:18:09.668Z,38.73
2018-02-21T15:20:37.530Z,39.77
2018-02-21T15:23:05.123Z,36.87
2018-02-21T15:25:33.370Z,35.33
2018-02-21T15:28:00.853Z,37.63
2018-02-21T15:30:29.135Z,35.73
2018-02-21T15:32:57.378Z,38.60
2018-02-21T15:35:24.966Z,39.43
2018-02-21T15:37:53.230Z,37.40
2018-02-21T15:40:20.797Z,39.33
2018-02-21T15:42:49.040Z,41.17
2018-02-21T15:45:16.801Z,43.70
2018-02-21T15:47:44.246Z,37.40
2018-02-21T15:50:11.732Z,40.63
2018-02-21T15:52:39.228Z,40.53
2018-02-21T15:55:07.473Z,40.87
2018-02-21T15:57:35.057Z,48.80
2018-02-21T16:00:03.576Z,44.80
2018-02-21T16:02:31.059Z,45.10
2018-02-21T16:04:58.551Z,39.83
2018-02-21T16:07:26.810Z,38.90
2018-02-21T16:09:54.296Z,43.27
2018-02-21T16:12:22.550Z,38.60
2018-02-21T16:14:50.857Z,40.53
2018-02-21T16:17:18.330Z,36.23
2018-02-21T16:19:45.813Z,44.40
2018-02-21T16:22:13.318Z,42.93
2018-02-21T16:24:41.558Z,42.50
2018-02-21T16:27:09.166Z,47.43
2018-02-21T16:29:37.428Z,43.07
2018-02-21T16:32:05.672Z,42.53
2018-02-21T16:34:33.149Z,42.10
2018-02-21T16:37:00.638Z,41.13
2018-02-21T16:39:28.126Z,41.90
2018-02-21T16:41:55.600Z,39.73
2018-02-21T16:44:23.095Z,41.23
2018-02-21T16:46:51.345Z,35.63
2018-02-21T16:49:18.832Z,39.40
2018-02-21T16:51:47.103Z,43.40
2018-02-21T16:54:16.257Z,40.93
2018-02-21T16:56:43.741Z,46.07
2018-02-21T16:59:11.227Z,40.70
2018-02-21T17:01:39.487Z,37.70
2018-02-21T17:04:06.967Z,42.10
2018-02-21T17:06:35.330Z,49.93
2018-02-21T17:09:03.575Z,40.43
2018-02-21T17:11:31.077Z,40.40
2018-02-21T17:13:59.383Z,39.10
2018-02-21T17:16:26.875Z,36.00
2018-02-21T17:18:54.354Z,40.37
2018-02-21T17:21:21.848Z,39.13
2018-02-21T17:23:49.375Z,43.60
2018-02-21T17:26:17.624Z,40.77
2018-02-21T17:28:45.114Z,43.43
2018-02-21T17:31:13.361Z,44.80
2018-02-21T17:33:40.857Z,39.30
2018-02-21T17:36:09.125Z,48.27
2018-02-21T17:38:37.378Z,50.30
2018-02-21T17:41:10.578Z,43.07
2018-02-21T17:43:38.058Z,49.00
2018-02-21T17:46:06.421Z,47.20
2018-02-21T17:48:33.915Z,47.53
2018-02-21T17:51:01.447Z,45.63
2018-02-21T17:53:29.717Z,50.23
2018-02-21T17:55:57.205Z,48.73
2018-02-21T17:58:24.739Z,41.37
2018-02-21T18:00:52.983Z,41.53
2018-02-21T18:03:20.515Z,44.70
2018-02-21T18:05:48.035Z,41.57
2018-02-21T18:08:16.321Z,52.60
2018-02-21T18:10:44.589Z,44.30
2018-02-21T18:13:12.838Z,40.57
2018-02-21T18:15:40.322Z,38.57
2018-02-21T18:18:08.578Z,48.80
2018-02-21T18:20:36.063Z,47.10
2018-02-21T18:23:04.330Z,51.60
2018-02-21T18:25:32.586Z,52.10
2018-02-21T18:28:00.067Z,43.73
2018-02-21T18:30:28.310Z,40.30
2018-02-21T18:32:55.794Z,41.43
2018-02-21T18:35:23.368Z,42.17
2018-02-21T18:37:52.674Z,43.20
2018-02-21T18:40:21.428Z,51.27
2018-02-21T18:42:49.084Z,49.27
2018-02-21T18:45:16.787Z,47.40
2018-02-21T18:47:45.177Z,44.33
2018-02-21T18:50:12.777Z,49.83
2018-02-21T18:52:41.017Z,47.00
2018-02-21T18:55:08.709Z,43.73
2018-02-21T18:57:36.195Z,42.20
2018-02-21T19:00:05.195Z,42.13
2018-02-21T19:02:32.697Z,36.67
2018-02-21T19:05:00.199Z,39.73
2018-02-21T19:07:27.703Z,40.20
2018-02-21T19:09:55.211Z,45.10
2018-02-21T19:12:22.799Z,37.47
2018-02-21T19:14:51.046Z,45.13
2018-02-21T19:17:19.104Z,42.17
2018-02-21T19:19:46.586Z,44.03
2018-02-21T19:22:15.012Z,40.67
2018-02-21T19:24:42.517Z,38.53
2018-02-21T19:27:10.008Z,34.50
2018-02-21T19:29:38.254Z,44.60
2018-02-21T19:32:06.518Z,37.50
2018-02-21T19:34:34.024Z,39.00
2018-02-21T19:37:02.270Z,36.53
2018-02-21T19:39:29.866Z,36.03
2018-02-21T19:41:58.146Z,37.10
2018-02-21T19:44:25.630Z,38.80
2018-02-21T19:46:53.160Z,31.23
2018-02-21T19:49:20.721Z,37.23
2018-02-21T19:51:49.092Z,38.27
2018-02-21T19:54:17.361Z,34.80
2018-02-21T19:56:45.611Z,36.93
2018-02-21T19:59:13.110Z,32.60
2018-02-21T20:01:41.381Z,31.97
2018-02-21T20:04:09.647Z,34.17
2018-02-21T20:06:38.036Z,38.60
2018-02-21T20:09:06.291Z,31.87
2018-02-21T20:11:34.555Z,32.10
2018-02-21T20:14:02.087Z,34.10
2018-02-21T20:16:29.587Z,32.37
2018-02-21T20:18:57.073Z,26.77
2018-02-21T20:21:24.587Z,28.53
2018-02-21T20:23:52.098Z,30.50
2018-02-21T20:26:19.647Z,29.63
2018-02-21T20:28:47.124Z,27.20
2018-02-21T20:31:15.283Z,35.30
2018-02-21T20:33:42.822Z,30.57
2018-02-21T20:36:11.114Z,32.80
2018-02-21T20:38:39.378Z,31.50
2018-02-21T20:41:07.670Z,30.23
2018-02-21T20:43:36.095Z,30.33
2018-02-21T20:46:03.542Z,30.17
2018-02-21T20:48:31.042Z,32.90
2018-02-21T20:50:59.339Z,33.43
2018-02-21T20:53:27.796Z,31.20
2018-02-21T20:55:56.055Z,25.63
2018-02-21T20:58:23.538Z,34.73
2018-02-21T21:00:51.820Z,31.40
2018-02-21T21:03:20.100Z,32.63
2018-02-21T21:05:48.087Z,28.60
2018-02-21T21:08:15.584Z,34.50
2018-02-21T21:10:43.085Z,28.83
2018-02-21T21:13:11.347Z,32.47
2018-02-21T21:15:40.255Z,26.00
2018-02-21T21:18:08.519Z,30.37
2018-02-21T21:20:36.002Z,28.83
2018-02-21T21:23:03.499Z,32.10
2018-02-21T21:25:30.990Z,30.67
2018-02-21T21:27:58.482Z,29.83
2018-02-21T21:30:25.982Z,31.20
2018-02-21T21:32:53.580Z,27.00
2018-02-21T21:35:21.830Z,27.77
2018-02-21T21:37:50.142Z,36.03
2018-02-21T21:40:18.391Z,32.60
2018-02-21T21:42:46.688Z,33.23
2018-02-21T21:45:14.971Z,38.67
2018-02-21T21:47:43.226Z,39.77
2018-02-21T21:50:11.475Z,31.50
2018-02-21T21:52:39.084Z,29.13
2018-02-21T21:55:08.049Z,33.53
2018-02-21T21:57:35.631Z,29.13
2018-02-21T22:00:03.894Z,34.13
2018-02-21T22:02:31.381Z,33.40
2018-02-21T22:04:58.863Z,41.37
2018-02-21T22:07:26.401Z,43.77
2018-02-21T22:09:53.890Z,37.90
2018-02-21T22:12:21.379Z,40.87
2018-02-21T22:14:50.391Z,33.47
2018-02-21T22:17:18.709Z,31.10
2018-02-21T22:19:46.859Z,31.07
2018-02-21T22:22:14.754Z,33.03
2018-02-21T22:24:42.291Z,37.33
2018-02-21T22:27:09.888Z,33.17
2018-02-21T22:29:37.537Z,36.37
2018-02-21T22:32:05.191Z,31.10
2018-02-21T22:34:32.853Z,37.27
2018-02-21T22:37:00.617Z,34.50
2018-02-21T22:39:28.313Z,30.63
2018-02-21T22:41:57.348Z,32.97
2018-02-21T22:44:25.614Z,32.30
2018-02-21T22:46:53.866Z,35.37
2018-02-21T22:49:21.454Z,37.40
2018-02-21T22:51:49.712Z,29.27
2018-02-21T22:54:18.713Z,42.20
2018-02-21T22:56:46.202Z,33.60
2018-02-21T22:59:13.693Z,33.97
2018-02-21T23:01:41.223Z,35.10
2018-02-21T23:04:08.714Z,34.53
2018-02-21T23:06:36.220Z,38.70
2018-02-21T23:09:04.468Z,32.80
2018-02-21T23:11:31.959Z,36.47
2018-02-21T23:14:00.227Z,38.43
2018-02-21T23:16:28.505Z,33.17
2018-02-21T23:18:56.775Z,36.33
2018-02-21T23:21:25.291Z,33.60
2018-02-21T23:23:52.877Z,34.60
2018-02-21T23:26:20.517Z,33.50
2018-02-21T23:28:48.133Z,31.87
2018-02-21T23:31:16.661Z,37.63
2018-02-21T23:33:44.242Z,35.37
2018-02-21T23:36:11.742Z,38.00
2018-02-21T23:38:40.002Z,34.90
2018-02-21T23:41:07.513Z,32.17
2018-02-21T23:43:35.006Z,32.53
2018-02-21T23:46:02.620Z,40.37
2018-02-21T23:48:30.102Z,34.17
2018-02-21T23:50:57.598Z,33.63
2018-02-21T23:53:25.182Z,35.03
2018-02-21T23:55:53.428Z,37.63
2018-02-21T23:58:20.937Z,37.20
